createdAt,value
2016-04-05T00:00:13.918Z,1002.49
2016-04-05T00:01:14.358Z,1002.44
2016-04-05T00:02:13.907Z,1002.4
2016-04-05T00:03:13.910Z,1002.41
2016-04-05T00:04:13.929Z,1002.36
2016-04-05T00:05:13.900Z,1002.36
2016-04-05T00:06:13.887Z,1002.39
2016-04-05T00:07:13.906Z,1002.37
2016-04-05T00:09:13.880Z,1002.42
2016-04-05T00:10:13.882Z,1002.43
2016-04-05T00:11:13.885Z,1002.46
2016-04-05T00:12:13.872Z,1002.48
2016-04-05T00:13:13.874Z,1002.49
2016-04-05T00:14:13.877Z,1002.47
2016-04-05T00:15:13.864Z,1002.46
2016-04-05T00:16:13.867Z,1002.49
2016-04-05T00:17:13.854Z,1002.45
2016-04-05T00:18:13.856Z,1002.49
2016-04-05T00:19:13.845Z,1002.48
2016-04-05T00:20:13.862Z,1002.46
2016-04-05T00:21:13.850Z,1002.42
2016-04-05T00:22:13.837Z,1002.43
2016-04-05T00:23:13.839Z,1002.46
2016-04-05T00:24:13.826Z,1002.46
2016-04-05T00:25:15.297Z,1002.46
2016-04-05T00:26:14.175Z,1002.51
2016-04-05T00:27:13.819Z,1002.47
2016-04-05T00:28:13.822Z,1002.51
2016-04-05T00:29:13.809Z,1002.48
2016-04-05T00:30:13.811Z,1002.52
2016-04-05T00:31:13.798Z,1002.48
2016-04-05T00:32:16.145Z,1002.49
2016-04-05T00:33:13.789Z,1002.46
2016-04-05T00:34:13.791Z,1002.5
2016-04-05T00:35:13.794Z,1002.45
2016-04-05T00:36:13.952Z,1002.43
2016-04-05T00:37:13.783Z,1002.44
2016-04-05T00:38:14.035Z,1002.42
2016-04-05T00:39:13.773Z,1002.39
2016-04-05T00:40:13.776Z,1002.4
2016-04-05T00:41:13.779Z,1002.41
2016-04-05T00:42:13.766Z,1002.39
2016-04-05T00:43:13.768Z,1002.39
2016-04-05T00:44:13.755Z,1002.39
2016-04-05T00:45:13.757Z,1002.4
2016-04-05T00:46:13.760Z,1002.39
2016-04-05T00:47:13.748Z,1002.38
2016-04-05T00:48:13.750Z,1002.35
2016-04-05T00:49:13.737Z,1002.34
2016-04-05T00:50:13.739Z,1002.31
2016-04-05T00:51:13.726Z,1002.35
2016-04-05T00:52:13.729Z,1002.35
2016-04-05T00:53:13.731Z,1002.34
2016-04-05T00:54:13.720Z,1002.32
2016-04-05T00:55:13.722Z,1002.33
2016-04-05T00:56:13.725Z,1002.32
2016-04-05T00:57:13.712Z,1002.33
2016-04-05T00:58:13.714Z,1002.29
2016-04-05T00:59:13.702Z,1002.26
2016-04-05T01:00:13.704Z,1002.29
2016-04-05T01:01:13.691Z,1002.28
2016-04-05T01:02:13.694Z,1002.29
2016-04-05T01:03:13.681Z,1002.28
2016-04-05T01:04:13.684Z,1002.28
2016-04-05T01:05:13.687Z,1002.25
2016-04-05T01:06:13.674Z,1002.24
2016-04-05T01:07:13.677Z,1002.21
2016-04-05T01:08:13.679Z,1002.18
2016-04-05T01:09:13.666Z,1002.17
2016-04-05T01:10:13.669Z,1002.13
2016-04-05T01:11:13.655Z,1002.12
2016-04-05T01:12:13.658Z,1002.11
2016-04-05T01:13:13.645Z,1002.08
2016-04-05T01:14:13.648Z,1002.03
2016-04-05T01:15:13.651Z,1002.04
2016-04-05T01:16:13.637Z,1002.06
2016-04-05T01:17:13.640Z,1002.05
2016-04-05T01:18:13.987Z,1002.05
2016-04-05T01:19:13.631Z,1002.12
2016-04-05T01:20:13.618Z,1002.08
2016-04-05T01:21:13.620Z,1002.13
2016-04-05T01:22:13.764Z,1002.13
2016-04-05T01:23:13.609Z,1002.12
2016-04-05T01:24:13.612Z,1002.06
2016-04-05T01:25:13.600Z,1002.12
2016-04-05T01:26:13.602Z,1002.12
2016-04-05T01:27:13.589Z,1002.12
2016-04-05T01:28:13.592Z,1002.12
2016-04-05T01:29:13.578Z,1002.12
2016-04-05T01:30:13.581Z,1002.15
2016-04-05T01:31:13.584Z,1002.13
2016-04-05T01:32:13.572Z,1002.13
2016-04-05T01:33:13.575Z,1002.12
2016-04-05T01:34:13.561Z,1002.12
2016-04-05T01:35:13.580Z,1002.16
2016-04-05T01:36:13.551Z,1002.14
2016-04-05T01:37:13.554Z,1002.13
2016-04-05T01:38:13.541Z,1002.12
2016-04-05T01:39:13.543Z,1002.13
2016-04-05T01:40:13.547Z,1002.11
2016-04-05T01:41:13.533Z,1002.1
2016-04-05T01:42:14.271Z,1002.15
2016-04-05T01:43:14.258Z,1002.1
2016-04-05T01:44:13.526Z,1002.1
2016-04-05T01:45:14.451Z,1002.11
2016-04-05T01:46:13.521Z,1002.12
2016-04-05T01:47:13.514Z,1002.13
2016-04-05T01:48:13.500Z,1002.15
2016-04-05T01:49:14.056Z,1002.14
2016-04-05T01:50:13.498Z,1002.17
2016-04-05T01:51:13.484Z,1002.14
2016-04-05T01:52:13.487Z,1002.11
2016-04-05T01:53:13.490Z,1002.14
2016-04-05T01:54:13.476Z,1002.11
2016-04-05T01:55:13.980Z,1002.12
2016-04-05T01:56:13.467Z,1002.13
2016-04-05T01:57:13.595Z,1002.13
2016-04-05T01:58:13.456Z,1002.13
2016-04-05T01:59:13.459Z,1002.19
2016-04-05T02:00:13.447Z,1002.16
2016-04-05T02:01:13.450Z,1002.2
2016-04-05T02:02:13.436Z,1002.19
2016-04-05T02:03:13.439Z,1002.2
2016-04-05T02:04:13.426Z,1002.18
2016-04-05T02:05:13.429Z,1002.21
2016-04-05T02:06:13.432Z,1002.16
2016-04-05T02:07:13.419Z,1002.15
2016-04-05T02:08:13.411Z,1002.18
2016-04-05T02:09:13.414Z,1002.14
2016-04-05T02:10:13.400Z,1002.17
2016-04-05T02:11:13.403Z,1002.13
2016-04-05T02:12:13.390Z,1002.16
2016-04-05T02:13:13.393Z,1002.13
2016-04-05T02:14:13.396Z,1002.16
2016-04-05T02:15:13.398Z,1002.15
2016-04-05T02:16:13.385Z,1002.14
2016-04-05T02:17:13.371Z,1002.11
2016-04-05T02:18:13.374Z,1002.11
2016-04-05T02:19:13.362Z,1002.11
2016-04-05T02:20:13.365Z,1002.12
2016-04-05T02:21:13.352Z,1002.11
2016-04-05T02:22:13.354Z,1002.1
2016-04-05T02:23:13.342Z,1002.08
2016-04-05T02:24:13.345Z,1002.12
2016-04-05T02:25:13.331Z,1002.09
2016-04-05T02:26:13.334Z,1002.09
2016-04-05T02:27:13.320Z,1002.08
2016-04-05T02:28:13.308Z,1002.09
2016-04-05T02:29:13.311Z,1002.09
2016-04-05T02:30:13.313Z,1002.06
2016-04-05T02:31:13.301Z,1002.05
2016-04-05T02:32:13.303Z,1002.03
2016-04-05T02:33:13.290Z,1002.01
2016-04-05T02:34:13.292Z,1002.04
2016-04-05T02:35:13.280Z,1001.99
2016-04-05T02:36:13.283Z,1002.05
2016-04-05T02:37:13.833Z,1002.09
2016-04-05T02:38:13.319Z,1002.08
2016-04-05T02:39:13.260Z,1002.1
2016-04-05T02:40:13.762Z,1002.13
2016-04-05T02:41:13.858Z,1002.09
2016-04-05T02:42:13.252Z,1002.13
2016-04-05T02:43:13.254Z,1002.12
2016-04-05T02:44:13.242Z,1002.14
2016-04-05T02:45:13.228Z,1002.18
2016-04-05T02:46:13.233Z,1002.19
2016-04-05T02:47:13.255Z,1002.19
2016-04-05T02:48:13.182Z,1002.22
2016-04-05T02:49:13.156Z,1002.21
2016-04-05T02:50:13.146Z,1002.2
2016-04-05T02:51:13.130Z,1002.21
2016-04-05T02:52:13.128Z,1002.23
2016-04-05T02:53:13.110Z,1002.2
2016-04-05T02:54:13.108Z,1002.23
2016-04-05T02:55:13.092Z,1002.22
2016-04-05T02:56:13.093Z,1002.21
2016-04-05T02:57:13.078Z,1002.18
2016-04-05T02:58:13.079Z,1002.18
2016-04-05T02:59:13.064Z,1002.18
2016-04-05T03:00:13.065Z,1002.21
2016-04-05T03:01:13.052Z,1002.19
2016-04-05T03:02:14.819Z,1002.21
2016-04-05T03:03:13.040Z,1002.23
2016-04-05T03:04:13.042Z,1002.21
2016-04-05T03:05:13.028Z,1002.22
2016-04-05T03:06:13.031Z,1002.23
2016-04-05T03:07:13.018Z,1002.22
2016-04-05T03:08:13.021Z,1002.28
2016-04-05T03:09:13.008Z,1002.27
2016-04-05T03:10:13.011Z,1002.31
2016-04-05T03:11:13.889Z,1002.37
2016-04-05T03:12:13.016Z,1002.33
2016-04-05T03:13:12.988Z,1002.35
2016-04-05T03:14:13.538Z,1002.32
2016-04-05T03:15:12.977Z,1002.37
2016-04-05T03:16:12.980Z,1002.35
2016-04-05T03:17:12.968Z,1002.3
2016-04-05T03:18:12.970Z,1002.27
2016-04-05T03:19:12.957Z,1002.26
2016-04-05T03:20:12.959Z,1002.27
2016-04-05T03:21:12.946Z,1002.24
2016-04-05T03:22:12.949Z,1002.21
2016-04-05T03:23:12.937Z,1002.17
2016-04-05T03:24:12.939Z,1002.21
2016-04-05T03:25:12.926Z,1002.2
2016-04-05T03:26:12.929Z,1002.22
2016-04-05T03:27:12.917Z,1002.21
2016-04-05T03:28:12.919Z,1002.23
2016-04-05T03:29:12.906Z,1002.26
2016-04-05T03:30:12.909Z,1002.27
2016-04-05T03:31:12.896Z,1002.28
2016-04-05T03:32:12.884Z,1002.31
2016-04-05T03:33:12.886Z,1002.24
2016-04-05T03:34:12.873Z,1002.23
2016-04-05T03:35:12.876Z,1002.23
2016-04-05T03:36:12.860Z,1002.21
2016-04-05T03:37:12.863Z,1002.2
2016-04-05T03:38:12.849Z,1002.21
2016-04-05T03:39:12.853Z,1002.22
2016-04-05T03:40:12.839Z,1002.23
2016-04-05T03:41:12.827Z,1002.28
2016-04-05T03:42:12.829Z,1002.31
2016-04-05T03:43:12.832Z,1002.32
2016-04-05T03:44:12.819Z,1002.29
2016-04-05T03:45:12.822Z,1002.31
2016-04-05T03:46:12.808Z,1002.3
2016-04-05T03:47:12.811Z,1002.35
2016-04-05T03:48:12.799Z,1002.3
2016-04-05T03:49:12.802Z,1002.31
2016-04-05T03:50:12.788Z,1002.29
2016-04-05T03:51:12.791Z,1002.27
2016-04-05T03:52:12.793Z,1002.25
2016-04-05T03:53:12.765Z,1002.23
2016-04-05T03:54:12.768Z,1002.24
2016-04-05T03:55:12.755Z,1002.26
2016-04-05T03:57:13.604Z,1002.26
2016-04-05T03:58:12.748Z,1002.27
2016-04-05T03:59:12.953Z,1002.25
2016-04-05T04:00:12.831Z,1002.26
2016-04-05T04:01:12.739Z,1002.2
2016-04-05T04:02:12.726Z,1002.22
2016-04-05T04:03:12.714Z,1002.19
2016-04-05T04:04:12.716Z,1002.2
2016-04-05T04:05:12.703Z,1002.21
2016-04-05T04:06:13.503Z,1002.2
2016-04-05T04:07:12.694Z,1002.17
2016-04-05T04:08:12.697Z,1002.24
2016-04-05T04:09:12.699Z,1002.23
2016-04-05T04:10:12.686Z,1002.2
2016-04-05T04:11:12.689Z,1002.25
2016-04-05T04:12:12.786Z,1002.24
2016-04-05T04:13:12.663Z,1002.24
2016-04-05T04:14:12.666Z,1002.22
2016-04-05T04:15:12.761Z,1002.21
2016-04-05T04:16:12.671Z,1002.17
2016-04-05T04:17:12.658Z,1002.17
2016-04-05T04:18:12.644Z,1002.13
2016-04-05T04:19:12.647Z,1002.15
2016-04-05T04:20:14.166Z,1002.15
2016-04-05T04:21:13.762Z,1002.16
2016-04-05T04:22:12.624Z,1002.15
2016-04-05T04:23:13.595Z,1002.19
2016-04-05T04:24:12.614Z,1002.18
2016-04-05T04:25:12.601Z,1002.21
2016-04-05T04:26:12.604Z,1002.24
2016-04-05T04:27:12.591Z,1002.29
2016-04-05T04:28:12.593Z,1002.28
2016-04-05T04:29:12.596Z,1002.3
2016-04-05T04:30:12.755Z,1002.33
2016-04-05T04:31:12.586Z,1002.35
2016-04-05T04:32:12.573Z,1002.34
2016-04-05T04:34:28.032Z,1002.29
2016-04-05T04:35:28.019Z,1002.32
2016-04-05T04:36:28.005Z,1002.33
2016-04-05T04:37:28.009Z,1002.27
2016-04-05T04:38:28.011Z,1002.32
2016-04-05T04:39:27.998Z,1002.33
2016-04-05T04:40:27.986Z,1002.3
2016-04-05T04:41:27.988Z,1002.31
2016-04-05T04:42:27.991Z,1002.33
2016-04-05T04:43:27.978Z,1002.34
2016-04-05T04:44:27.980Z,1002.34
2016-04-05T04:45:27.967Z,1002.37
2016-04-05T04:46:27.970Z,1002.36
2016-04-05T04:47:27.958Z,1002.42
2016-04-05T04:48:27.960Z,1002.39
2016-04-05T04:49:27.947Z,1002.39
2016-04-05T04:50:27.949Z,1002.37
2016-04-05T04:51:27.937Z,1002.41
2016-04-05T04:52:27.940Z,1002.41
2016-04-05T04:53:27.942Z,1002.42
2016-04-05T04:54:27.930Z,1002.41
2016-04-05T04:55:27.916Z,1002.4
2016-04-05T04:56:27.918Z,1002.42
2016-04-05T04:57:27.907Z,1002.41
2016-04-05T04:58:27.909Z,1002.41
2016-04-05T04:59:27.896Z,1002.4
2016-04-05T05:00:27.898Z,1002.4
2016-04-05T05:01:27.901Z,1002.37
2016-04-05T05:02:27.888Z,1002.36
2016-04-05T05:03:27.890Z,1002.37
2016-04-05T05:04:27.878Z,1002.33
2016-04-05T05:05:27.881Z,1002.41
2016-04-05T05:06:27.867Z,1002.38
2016-04-05T05:07:27.870Z,1002.38
2016-04-05T05:08:27.873Z,1002.36
2016-04-05T05:09:27.861Z,1002.32
2016-04-05T05:10:27.863Z,1002.31
2016-04-05T05:11:27.850Z,1002.33
2016-04-05T05:12:27.853Z,1002.25
2016-04-05T05:13:27.855Z,1002.28
2016-04-05T05:14:28.999Z,1002.28
2016-04-05T05:15:27.845Z,1002.27
2016-04-05T05:16:27.833Z,1002.25
2016-04-05T05:17:27.835Z,1002.27
2016-04-05T05:18:27.821Z,1002.31
2016-04-05T05:19:27.825Z,1002.3
2016-04-05T05:20:27.827Z,1002.33
2016-04-05T05:21:27.813Z,1002.3
2016-04-05T05:22:27.817Z,1002.27
2016-04-05T05:23:27.804Z,1002.27
2016-04-05T05:24:28.416Z,1002.24
2016-04-05T05:25:28.200Z,1002.27
2016-04-05T05:26:27.796Z,1002.23
2016-04-05T05:27:27.799Z,1002.24
2016-04-05T05:28:27.802Z,1002.25
2016-04-05T05:29:27.790Z,1002.23
2016-04-05T05:30:27.792Z,1002.26
2016-04-05T05:31:27.779Z,1002.25
2016-04-05T05:32:27.781Z,1002.27
2016-04-05T05:33:27.784Z,1002.29
2016-04-05T05:34:27.787Z,1002.29
2016-04-05T05:35:27.773Z,1002.34
2016-04-05T05:36:27.776Z,1002.31
2016-04-05T05:37:27.764Z,1002.29
2016-04-05T05:38:29.281Z,1002.32
2016-04-05T05:39:27.754Z,1002.29
2016-04-05T05:40:27.756Z,1002.29
2016-04-05T05:41:27.789Z,1002.31
2016-04-05T05:42:27.746Z,1002.27
2016-04-05T05:43:28.452Z,1002.3
2016-04-05T05:44:27.751Z,1002.27
2016-04-05T05:45:27.958Z,1002.25
2016-04-05T05:46:27.960Z,1002.27
2016-04-05T05:47:27.744Z,1002.26
2016-04-05T05:48:27.730Z,1002.27
2016-04-05T05:49:27.733Z,1002.3
2016-04-05T05:50:28.391Z,1002.3
2016-04-05T05:51:27.723Z,1002.29
2016-04-05T05:52:27.726Z,1002.32
2016-04-05T05:53:27.713Z,1002.29
2016-04-05T05:54:27.716Z,1002.33
2016-04-05T05:55:27.984Z,1002.32
2016-04-05T05:56:27.705Z,1002.37
2016-04-05T05:57:27.708Z,1002.38
2016-04-05T05:58:27.710Z,1002.41
2016-04-05T05:59:27.698Z,1002.44
2016-04-05T06:00:27.701Z,1002.45
2016-04-05T06:01:27.688Z,1002.42
2016-04-05T06:02:27.690Z,1002.44
2016-04-05T06:03:27.692Z,1002.48
2016-04-05T06:04:27.680Z,1002.48
2016-04-05T06:05:27.682Z,1002.54
2016-04-05T06:06:27.684Z,1002.57
2016-04-05T06:07:27.673Z,1002.6
2016-04-05T06:08:27.675Z,1002.61
2016-04-05T06:09:27.678Z,1002.63
2016-04-05T06:10:27.665Z,1002.66
2016-04-05T06:11:27.667Z,1002.68
2016-04-05T06:12:27.670Z,1002.74
2016-04-05T06:13:27.658Z,1002.77
2016-04-05T06:14:27.660Z,1002.83
2016-04-05T06:15:27.663Z,1002.81
2016-04-05T06:16:27.666Z,1002.86
2016-04-05T06:17:27.652Z,1002.94
2016-04-05T06:18:27.655Z,1003.04
2016-04-05T06:19:27.642Z,1003.08
2016-04-05T06:20:27.644Z,1003.07
2016-04-05T06:21:27.647Z,1003.03
2016-04-05T06:22:27.650Z,1003.06
2016-04-05T06:23:27.653Z,1003.02
2016-04-05T06:24:27.656Z,1003.07
2016-04-05T06:25:27.643Z,1003.02
2016-04-05T06:26:28.098Z,1003
2016-04-05T06:27:27.649Z,1003.09
2016-04-05T06:28:27.635Z,1003.12
2016-04-05T06:29:27.637Z,1003.11
2016-04-05T06:30:27.641Z,1003.16
2016-04-05T06:31:27.643Z,1003.22
2016-04-05T06:32:27.646Z,1003.24
2016-04-05T06:33:27.648Z,1003.18
2016-04-05T06:34:27.901Z,1003.22
2016-04-05T06:35:27.857Z,1003.23
2016-04-05T06:36:27.953Z,1003.23
2016-04-05T06:37:27.659Z,1003.21
2016-04-05T06:38:27.662Z,1003.06
2016-04-05T06:39:27.665Z,1003
2016-04-05T06:40:27.667Z,1003.01
2016-04-05T06:41:27.654Z,1003.11
2016-04-05T06:42:27.673Z,1003.25
2016-04-05T06:43:27.909Z,1003.24
2016-04-05T06:44:28.022Z,1003.27
2016-04-05T06:45:27.681Z,1003.31
2016-04-05T06:46:28.575Z,1003.31
2016-04-05T06:47:27.686Z,1003.35
2016-04-05T06:48:27.688Z,1003.37
2016-04-05T06:49:27.692Z,1003.37
2016-04-05T06:50:27.710Z,1003.46
2016-04-05T06:51:27.713Z,1003.49
2016-04-05T06:52:27.716Z,1003.54
2016-04-05T06:53:27.718Z,1003.15
2016-04-05T06:54:27.736Z,1003.13
2016-04-05T06:55:27.739Z,1003.12
2016-04-05T06:56:27.741Z,1003.11
2016-04-05T06:57:27.760Z,1003.1
2016-04-05T06:58:28.810Z,1003.06
2016-04-05T06:59:27.781Z,1003.04
2016-04-05T07:00:28.471Z,1002.95
2016-04-05T07:01:27.802Z,1002.94
2016-04-05T07:02:27.789Z,1002.98
2016-04-05T07:03:27.807Z,1002.98
2016-04-05T07:04:27.810Z,1003.12
2016-04-05T07:05:27.828Z,1003.16
2016-04-05T07:06:27.831Z,1003.25
2016-04-05T07:07:28.383Z,1003.42
2016-04-05T07:08:28.978Z,1003.7
2016-04-05T07:09:27.856Z,1003.73
2016-04-05T07:10:27.859Z,1003.81
2016-04-05T07:11:27.877Z,1003.91
2016-04-05T07:12:27.880Z,1003.75
2016-04-05T07:13:27.899Z,1003.9
2016-04-05T07:14:27.917Z,1003.99
2016-04-05T07:15:27.919Z,1004.18
2016-04-05T07:16:27.922Z,1004.14
2016-04-05T07:17:27.925Z,1004.23
2016-04-05T07:18:27.944Z,1004.28
2016-04-05T07:19:27.946Z,1004.34
2016-04-05T07:20:27.964Z,1004.26
2016-04-05T07:21:27.967Z,1004.21
2016-04-05T07:22:27.985Z,1004.15
2016-04-05T07:23:27.988Z,1004.12
2016-04-05T07:24:28.007Z,1004.17
2016-04-05T07:25:28.024Z,1003.87
2016-04-05T07:26:28.027Z,1003.24
2016-04-05T07:27:28.045Z,1004
2016-04-05T07:28:28.064Z,1004.08
2016-04-05T07:29:28.067Z,1004.21
2016-04-05T07:30:28.069Z,1003.89
2016-04-05T07:31:28.088Z,1003.27
2016-04-05T07:32:28.106Z,1003.28
2016-04-05T07:33:28.123Z,1003.39
2016-04-05T07:34:28.126Z,1003.81
2016-04-05T07:35:28.145Z,1003.52
2016-04-05T07:36:28.148Z,1003.23
2016-04-05T07:37:28.166Z,1003.19
2016-04-05T07:38:28.185Z,1003.2
2016-04-05T07:39:28.187Z,1003.03
2016-04-05T07:40:28.205Z,1002.88
2016-04-05T07:41:28.224Z,1002.83
2016-04-05T07:42:28.227Z,1002.84
2016-04-05T07:43:28.245Z,1002.83
2016-04-05T07:44:28.263Z,1002.85
2016-04-05T07:45:28.266Z,1003.42
2016-04-05T07:46:28.269Z,1003.13
2016-04-05T07:47:28.286Z,1003.09
2016-04-05T07:48:28.289Z,1003.61
2016-04-05T07:49:28.308Z,1003.77
2016-04-05T07:50:28.327Z,1003.27
2016-04-05T07:51:28.329Z,1003.24
2016-04-05T07:53:28.350Z,1002.92
2016-04-05T07:54:28.759Z,1002.77
2016-04-05T07:55:28.918Z,1003.05
2016-04-05T07:56:28.390Z,1002.69
2016-04-05T07:57:28.392Z,1002.85
2016-04-05T07:58:28.410Z,1002.97
2016-04-05T07:59:28.413Z,1002.85
2016-04-05T08:00:28.431Z,1002.68
2016-04-05T08:01:28.434Z,1002.72
2016-04-05T08:04:28.473Z,1002.62
2016-04-05T08:05:28.476Z,1002.58
2016-04-05T08:06:28.495Z,1002.42
2016-04-05T08:07:28.512Z,1002.42
2016-04-05T08:08:28.515Z,1002.25
2016-04-05T08:09:28.518Z,1002.21
2016-04-05T08:10:28.520Z,1002.17
2016-04-05T08:11:28.539Z,1002.1
2016-04-05T08:12:28.541Z,1002.09
2016-04-05T08:13:28.561Z,1002.02
2016-04-05T08:14:28.563Z,1001.94
2016-04-05T08:15:28.581Z,1001.92
2016-04-05T08:16:30.114Z,1001.89
2016-04-05T08:17:28.586Z,1001.89
2016-04-05T08:18:28.605Z,1001.86
2016-04-05T08:19:28.607Z,1001.86
2016-04-05T08:20:28.798Z,1001.82
2016-04-05T08:21:28.628Z,1001.86
2016-04-05T08:22:29.052Z,1001.78
2016-04-05T08:23:28.633Z,1001.8
2016-04-05T08:24:28.635Z,1001.81
2016-04-05T08:25:28.655Z,1001.84
2016-04-05T08:26:28.657Z,1001.94
2016-04-05T08:27:28.660Z,1001.95
2016-04-05T08:28:29.522Z,1002.04
2016-04-05T08:29:28.665Z,1002.05
2016-04-05T08:30:29.184Z,1002.15
2016-04-05T08:31:28.687Z,1002.2
2016-04-05T08:32:28.689Z,1002.26
2016-04-05T08:33:28.707Z,1002.28
2016-04-05T08:34:28.695Z,1002.33
2016-04-05T08:35:28.713Z,1002.38
2016-04-05T08:36:28.715Z,1002.42
2016-04-05T08:37:28.718Z,1002.53
2016-04-05T08:38:28.720Z,1002.5
2016-04-05T08:39:28.723Z,1002.59
2016-04-05T08:40:28.726Z,1002.63
2016-04-05T08:41:28.728Z,1002.64
2016-04-05T08:42:28.748Z,1002.64
2016-04-05T08:43:28.734Z,1002.69
2016-04-05T08:44:28.752Z,1002.72
2016-04-05T08:45:28.755Z,1002.73
2016-04-05T08:46:28.758Z,1002.7
2016-04-05T08:47:28.777Z,1002.7
2016-04-05T08:48:28.779Z,1002.66
2016-04-05T08:49:28.783Z,1002.56
2016-04-05T08:50:28.785Z,1002.53
2016-04-05T08:51:28.787Z,1002.52
2016-04-05T08:52:28.805Z,1002.51
2016-04-05T08:53:28.807Z,1002.54
2016-04-05T08:54:28.811Z,1002.55
2016-04-05T08:55:28.813Z,1002.57
2016-04-05T08:56:28.816Z,1002.59
2016-04-05T08:57:28.835Z,1002.62
2016-04-05T08:58:28.837Z,1002.63
2016-04-05T08:59:28.855Z,1002.65
2016-04-05T09:00:28.843Z,1002.71
2016-04-05T09:01:28.860Z,1002.69
2016-04-05T09:02:28.863Z,1002.7
2016-04-05T09:03:28.866Z,1002.66
2016-04-05T09:04:28.885Z,1002.65
2016-04-05T09:05:28.887Z,1002.65
2016-04-05T09:06:28.906Z,1002.64
2016-04-05T09:07:28.892Z,1002.6
2016-04-05T09:08:28.911Z,1002.53
2016-04-05T09:09:28.914Z,1002.55
2016-04-05T09:10:28.921Z,1002.52
2016-04-05T09:11:28.940Z,1002.47
2016-04-05T09:12:28.942Z,1002.49
2016-04-05T09:13:28.945Z,1002.48
2016-04-05T09:14:28.947Z,1002.45
2016-04-05T09:15:28.966Z,1002.45
2016-04-05T09:16:28.969Z,1002.41
2016-04-05T09:17:28.971Z,1002.42
2016-04-05T09:18:29.193Z,1002.31
2016-04-05T09:19:28.992Z,1002.36
2016-04-05T09:20:29.011Z,1002.38
2016-04-05T09:21:29.013Z,1002.36
2016-04-05T09:22:29.016Z,1002.34
2016-04-05T09:23:29.035Z,1002.34
2016-04-05T09:24:29.037Z,1002.31
2016-04-05T09:25:29.040Z,1002.3
2016-04-05T09:26:29.042Z,1002.28
2016-04-05T09:27:29.061Z,1002.28
2016-04-05T09:28:29.063Z,1002.21
2016-04-05T09:29:29.082Z,1002.16
2016-04-05T09:30:29.084Z,1002.17
2016-04-05T09:31:29.087Z,1002.12
2016-04-05T09:32:29.106Z,1002.09
2016-04-05T09:33:29.108Z,1002.07
2016-04-05T09:34:29.126Z,1002.07
2016-04-05T09:35:29.129Z,1002.09
2016-04-05T09:36:29.132Z,1002.09
2016-04-05T09:37:29.135Z,1002.08
2016-04-05T09:38:29.137Z,1002.06
2016-04-05T09:39:29.156Z,1002.07
2016-04-05T09:40:29.158Z,1002.04
2016-04-05T09:41:29.161Z,1002.06
2016-04-05T09:42:29.163Z,1002.02
2016-04-05T09:43:29.182Z,1002
2016-04-05T09:44:29.184Z,1001.97
2016-04-05T09:45:29.186Z,1002
2016-04-05T09:46:29.205Z,1002
2016-04-05T09:47:29.208Z,1002
2016-04-05T09:48:29.210Z,1002
2016-04-05T09:49:29.229Z,1001.95
2016-04-05T09:50:29.233Z,1001.95
2016-04-05T09:51:29.235Z,1001.89
2016-04-05T09:52:29.237Z,1001.91
2016-04-05T09:53:29.241Z,1001.88
2016-04-05T09:54:29.258Z,1001.85
2016-04-05T09:55:29.261Z,1001.92
2016-04-05T09:56:29.263Z,1001.84
2016-04-05T09:57:29.266Z,1001.84
2016-04-05T09:58:29.269Z,1001.86
2016-04-05T09:59:29.287Z,1001.85
2016-04-05T10:00:29.290Z,1001.84
2016-04-05T10:01:29.292Z,1001.79
2016-04-05T10:02:29.296Z,1001.78
2016-04-05T10:03:29.298Z,1001.74
2016-04-05T10:04:29.301Z,1001.78
2016-04-05T10:05:29.319Z,1001.77
2016-04-05T10:06:29.322Z,1001.75
2016-04-05T10:07:29.324Z,1001.74
2016-04-05T10:08:29.342Z,1001.76
2016-04-05T10:09:29.330Z,1001.77
2016-04-05T10:10:29.347Z,1001.75
2016-04-05T10:11:29.350Z,1001.74
2016-04-05T10:12:29.353Z,1001.76
2016-04-05T10:13:29.356Z,1001.75
2016-04-05T10:14:29.359Z,1001.74
2016-04-05T10:15:29.362Z,1001.72
2016-04-05T10:16:29.380Z,1001.71
2016-04-05T10:17:29.383Z,1001.74
2016-04-05T10:18:29.386Z,1001.78
2016-04-05T10:19:29.388Z,1001.74
2016-04-05T10:20:29.391Z,1001.75
2016-04-05T10:21:29.393Z,1001.77
2016-04-05T10:22:29.411Z,1001.78
2016-04-05T10:23:29.414Z,1001.78
2016-04-05T10:24:29.416Z,1001.79
2016-04-05T10:25:29.436Z,1001.76
2016-04-05T10:26:29.422Z,1001.74
2016-04-05T10:27:29.425Z,1001.73
2016-04-05T10:28:29.444Z,1001.71
2016-04-05T10:29:29.446Z,1001.69
2016-04-05T10:30:29.449Z,1001.67
2016-04-05T10:31:30.107Z,1001.65
2016-04-05T10:32:29.470Z,1001.6
2016-04-05T10:33:29.473Z,1001.63
2016-04-05T10:34:29.476Z,1001.58
2016-04-05T10:35:29.868Z,1001.58
2016-04-05T10:36:29.481Z,1001.6
2016-04-05T10:37:30.686Z,1001.57
2016-04-05T10:38:29.486Z,1001.58
2016-04-05T10:39:29.489Z,1001.57
2016-04-05T10:40:29.506Z,1001.59
2016-04-05T10:41:29.509Z,1001.6
2016-04-05T10:42:30.059Z,1001.55
2016-04-05T10:43:29.514Z,1001.59
2016-04-05T10:44:29.534Z,1001.58
2016-04-05T10:45:29.723Z,1001.54
2016-04-05T10:46:29.539Z,1001.56
2016-04-05T10:47:29.541Z,1001.59
2016-04-05T10:48:29.560Z,1001.58
2016-04-05T10:49:29.547Z,1001.6
2016-04-05T10:50:29.565Z,1001.59
2016-04-05T10:51:29.568Z,1001.59
2016-04-05T10:52:29.571Z,1001.61
2016-04-05T10:53:29.573Z,1001.58
2016-04-05T10:54:29.576Z,1001.59
2016-04-05T10:55:29.578Z,1001.55
2016-04-05T10:56:29.582Z,1001.55
2016-04-05T10:57:29.599Z,1001.53
2016-04-05T10:58:29.602Z,1001.54
2016-04-05T10:59:29.605Z,1001.54
2016-04-05T11:00:29.608Z,1001.54
2016-04-05T11:01:29.610Z,1001.52
2016-04-05T11:02:29.613Z,1001.54
2016-04-05T11:03:29.615Z,1001.49
2016-04-05T11:04:29.635Z,1001.49
2016-04-05T11:05:29.637Z,1001.45
2016-04-05T11:06:29.640Z,1001.46
2016-04-05T11:07:29.643Z,1001.4
2016-04-05T11:08:29.715Z,1001.42
2016-04-05T11:09:29.646Z,1001.42
2016-04-05T11:10:29.648Z,1001.4
2016-04-05T11:11:29.651Z,1001.43
2016-04-05T11:12:29.669Z,1001.43
2016-04-05T11:13:29.672Z,1001.43
2016-04-05T11:14:29.690Z,1001.43
2016-04-05T11:15:29.678Z,1001.42
2016-04-05T11:16:29.743Z,1001.44
2016-04-05T11:17:29.698Z,1001.38
2016-04-05T11:18:29.701Z,1001.39
2016-04-05T11:19:29.704Z,1001.36
2016-04-05T11:20:29.706Z,1001.35
2016-04-05T11:21:29.709Z,1001.37
2016-04-05T11:22:29.712Z,1001.31
2016-04-05T11:23:29.731Z,1001.29
2016-04-05T11:24:29.733Z,1001.27
2016-04-05T11:25:29.735Z,1001.32
2016-04-05T11:26:29.816Z,1001.26
2016-04-05T11:27:29.741Z,1001.26
2016-04-05T11:28:29.759Z,1001.23
2016-04-05T11:29:29.762Z,1001.2
2016-04-05T11:30:29.764Z,1001.22
2016-04-05T11:31:29.767Z,1001.17
2016-04-05T11:32:29.786Z,1001.14
2016-04-05T11:33:29.788Z,1001.2
2016-04-05T11:34:29.791Z,1001.21
2016-04-05T11:35:29.794Z,1001.23
2016-04-05T11:36:29.796Z,1001.2
2016-04-05T11:37:29.799Z,1001.22
2016-04-05T11:38:29.817Z,1001.23
2016-04-05T11:39:29.820Z,1001.21
2016-04-05T11:40:29.823Z,1001.16
2016-04-05T11:41:29.840Z,1001.17
2016-04-05T11:42:29.843Z,1001.18
2016-04-05T11:43:29.845Z,1001.16
2016-04-05T11:44:29.848Z,1001.15
2016-04-05T11:45:29.867Z,1001.15
2016-04-05T11:46:29.853Z,1001.14
2016-04-05T11:47:29.857Z,1001.13
2016-04-05T11:48:29.891Z,1001.11
2016-04-05T11:49:31.175Z,1001.1
2016-04-05T11:50:29.880Z,1001.06
2016-04-05T11:51:29.881Z,1001.1
2016-04-05T11:52:29.892Z,1001.12
2016-04-05T11:53:30.775Z,1001.11
2016-04-05T11:54:29.879Z,1001.12
2016-04-05T11:55:30.248Z,1001.14
2016-04-05T11:56:29.883Z,1001.12
2016-04-05T11:57:29.883Z,1001.11
2016-04-05T11:58:29.976Z,1001.11
2016-04-05T11:59:30.537Z,1001.11
2016-04-05T12:00:29.882Z,1001.11
2016-04-05T12:01:29.897Z,1001.13
2016-04-05T12:02:29.899Z,1001.09
2016-04-05T12:03:29.901Z,1001.15
2016-04-05T12:04:30.574Z,1001.11
2016-04-05T12:05:30.825Z,1001.09
2016-04-05T12:06:29.937Z,1001.13
2016-04-05T12:07:29.923Z,1001.12
2016-04-05T12:08:29.925Z,1001.14
2016-04-05T12:09:29.943Z,1001.12
2016-04-05T12:10:29.945Z,1001.13
2016-04-05T12:11:29.979Z,1001.16
2016-04-05T12:12:29.967Z,1001.14
2016-04-05T12:13:29.969Z,1001.08
2016-04-05T12:14:32.972Z,1001.04